createdAt,value
2019-03-24T00:00:37.253Z,11.93
2019-03-24T00:03:06.400Z,20.93
2019-03-24T00:05:35.600Z,15.67
2019-03-24T00:08:04.909Z,20.73
2019-03-24T00:10:33.922Z,18.80
2019-03-24T00:13:03.111Z,15.57
2019-03-24T00:15:32.132Z,18.73
2019-03-24T00:18:01.200Z,20.40
2019-03-24T00:20:30.243Z,17.60
2019-03-24T00:22:59.662Z,16.60
2019-03-24T00:25:28.732Z,16.47
2019-03-24T00:27:57.812Z,16.43
2019-03-24T00:30:26.902Z,14.63
2019-03-24T00:32:56.170Z,19.40
2019-03-24T00:35:25.638Z,20.43
2019-03-24T00:37:54.801Z,17.10
2019-03-24T00:40:23.951Z,19.87
2019-03-24T00:42:53.020Z,22.17
2019-03-24T00:45:23.008Z,14.33
2019-03-24T00:47:52.110Z,18.27
2019-03-24T00:50:21.875Z,16.37
2019-03-24T00:52:50.975Z,20.80
2019-03-24T00:55:20.403Z,14.30
2019-03-24T00:57:49.482Z,13.37
2019-03-24T01:00:20.823Z,21.80
2019-03-24T01:02:49.876Z,18.47
2019-03-24T01:05:18.950Z,18.07
2019-03-24T01:07:48.231Z,18.30
2019-03-24T01:10:17.374Z,19.33
2019-03-24T01:12:46.433Z,16.87
2019-03-24T01:15:15.890Z,18.03
2019-03-24T01:17:44.925Z,17.50
2019-03-24T01:20:14.302Z,14.00
2019-03-24T01:22:43.302Z,22.27
2019-03-24T01:25:12.338Z,19.27
2019-03-24T01:27:41.843Z,21.73
2019-03-24T01:30:11.714Z,16.83
2019-03-24T01:32:40.769Z,15.40
2019-03-24T01:35:10.100Z,19.13
2019-03-24T01:37:39.151Z,16.83
2019-03-24T01:40:08.307Z,19.43
2019-03-24T01:42:37.417Z,18.00
2019-03-24T01:45:06.821Z,12.50
2019-03-24T01:47:35.845Z,19.17
2019-03-24T01:50:05.460Z,16.30
2019-03-24T01:52:34.489Z,21.23
2019-03-24T01:55:03.584Z,16.40
2019-03-24T01:57:32.818Z,20.80
2019-03-24T02:00:01.910Z,13.87
2019-03-24T02:02:30.982Z,16.50
2019-03-24T02:05:00.033Z,14.20
2019-03-24T02:07:29.073Z,29.23
2019-03-24T02:09:58.123Z,21.83
2019-03-24T02:12:27.740Z,18.80
2019-03-24T02:14:56.764Z,20.27
2019-03-24T02:17:26.387Z,22.13
2019-03-24T02:19:55.394Z,17.80
2019-03-24T02:22:24.398Z,18.93
2019-03-24T02:24:53.583Z,17.83
2019-03-24T02:27:22.650Z,15.83
2019-03-24T02:29:51.817Z,18.40
2019-03-24T02:32:21.029Z,17.53
2019-03-24T02:34:50.564Z,24.30
2019-03-24T02:37:19.895Z,19.87
2019-03-24T02:39:49.479Z,12.43
2019-03-24T02:42:18.626Z,21.30
2019-03-24T02:44:48.092Z,22.00
2019-03-24T02:47:17.194Z,15.30
2019-03-24T02:49:46.265Z,22.47
2019-03-24T02:52:15.546Z,19.10
2019-03-24T02:54:44.942Z,18.47
2019-03-24T02:57:14.062Z,21.77
2019-03-24T02:59:43.089Z,15.73
2019-03-24T03:02:12.362Z,16.87
2019-03-24T03:04:41.507Z,25.40
2019-03-24T03:07:10.624Z,18.37
2019-03-24T03:09:39.821Z,25.27
2019-03-24T03:12:08.920Z,16.00
2019-03-24T03:14:38.161Z,19.50
2019-03-24T03:17:07.326Z,18.10
2019-03-24T03:19:36.337Z,18.37
2019-03-24T03:22:05.413Z,19.97
2019-03-24T03:24:35.256Z,18.57
2019-03-24T03:27:04.439Z,23.80
2019-03-24T03:29:33.501Z,19.80
2019-03-24T03:32:02.576Z,24.03
2019-03-24T03:34:31.632Z,23.53
2019-03-24T03:37:00.708Z,25.27
2019-03-24T03:39:30.052Z,21.07
2019-03-24T03:41:59.106Z,21.13
2019-03-24T03:44:28.348Z,14.60
2019-03-24T03:46:58.498Z,18.33
2019-03-24T03:49:27.559Z,18.73
2019-03-24T03:51:56.572Z,19.43
2019-03-24T03:54:25.868Z,17.40
2019-03-24T03:56:54.979Z,18.17
2019-03-24T03:59:24.140Z,23.10
2019-03-24T04:01:53.163Z,13.90
2019-03-24T04:04:22.636Z,18.50
2019-03-24T04:06:51.703Z,17.43
2019-03-24T04:09:21.079Z,25.83
2019-03-24T04:11:50.170Z,18.63
2019-03-24T04:14:19.321Z,22.57
2019-03-24T04:16:48.427Z,23.53
2019-03-24T04:19:19.281Z,20.67
2019-03-24T04:21:48.637Z,14.00
2019-03-24T04:24:35.151Z,14.47
2019-03-24T04:27:04.609Z,31.53
2019-03-24T04:29:33.693Z,24.73
2019-03-24T04:32:03.182Z,17.07
2019-03-24T04:34:32.231Z,15.33
2019-03-24T04:37:01.229Z,22.23
2019-03-24T04:39:30.792Z,24.27
2019-03-24T04:41:59.981Z,20.70
2019-03-24T04:44:29.086Z,15.80
2019-03-24T04:46:58.086Z,17.67
2019-03-24T04:49:27.149Z,21.53
2019-03-24T04:51:56.194Z,16.40
2019-03-24T04:54:25.754Z,18.70
2019-03-24T04:56:54.858Z,19.83
2019-03-24T04:59:24.065Z,20.03
2019-03-24T05:01:53.090Z,29.53
2019-03-24T05:04:22.294Z,21.60
2019-03-24T05:06:51.354Z,20.83
2019-03-24T05:09:20.355Z,19.00
2019-03-24T05:11:49.402Z,19.70
2019-03-24T05:14:18.437Z,25.33
2019-03-24T05:16:47.466Z,20.30
2019-03-24T05:19:17.251Z,14.43
2019-03-24T05:21:46.628Z,18.23
2019-03-24T05:24:15.801Z,19.70
2019-03-24T05:26:44.904Z,23.60
2019-03-24T05:29:13.930Z,22.37
2019-03-24T05:31:43.119Z,22.07
2019-03-24T05:34:12.177Z,24.20
2019-03-24T05:36:41.218Z,20.93
2019-03-24T05:39:10.394Z,22.10
2019-03-24T05:41:39.476Z,26.50
2019-03-24T05:44:08.540Z,25.73
2019-03-24T05:46:37.634Z,23.93
2019-03-24T05:49:06.676Z,20.60
2019-03-24T05:51:35.756Z,29.80
2019-03-24T05:54:04.850Z,25.30
2019-03-24T05:56:33.906Z,23.27
2019-03-24T05:59:03.003Z,29.83
2019-03-24T06:01:32.074Z,30.03
2019-03-24T06:04:01.155Z,33.03
2019-03-24T06:06:30.761Z,25.67
2019-03-24T06:09:00.000Z,28.17
2019-03-24T06:11:29.122Z,29.10
2019-03-24T06:13:58.132Z,32.40
2019-03-24T06:16:27.184Z,27.47
2019-03-24T06:18:57.004Z,30.87
2019-03-24T06:21:26.233Z,31.00
2019-03-24T06:23:55.412Z,30.60
2019-03-24T06:26:24.670Z,36.93
2019-03-24T06:28:53.766Z,30.30
2019-03-24T06:31:22.813Z,34.77
2019-03-24T06:33:53.009Z,34.20
2019-03-24T06:36:22.282Z,27.47
2019-03-24T06:38:51.343Z,30.73
2019-03-24T06:41:20.573Z,32.90
2019-03-24T06:43:49.718Z,29.13
2019-03-24T06:46:19.003Z,36.37
2019-03-24T06:48:48.193Z,29.17
2019-03-24T06:51:17.831Z,30.73
2019-03-24T06:53:46.979Z,25.63
2019-03-24T06:56:16.010Z,29.47
2019-03-24T06:58:45.214Z,26.40
2019-03-24T07:01:14.243Z,33.60
2019-03-24T07:03:43.330Z,20.20
2019-03-24T07:06:12.395Z,30.00
2019-03-24T07:08:41.419Z,27.70
2019-03-24T07:11:13.686Z,30.43
2019-03-24T07:13:41.452Z,28.63
2019-03-24T07:16:10.591Z,32.83
2019-03-24T07:18:39.724Z,30.53
2019-03-24T07:21:08.823Z,32.13
2019-03-24T07:23:37.919Z,29.47
2019-03-24T07:26:07.100Z,27.00
2019-03-24T07:28:36.218Z,30.43
2019-03-24T07:31:05.419Z,22.40
2019-03-24T07:33:34.739Z,27.00
2019-03-24T07:36:04.423Z,24.93
2019-03-24T07:38:33.497Z,31.23
2019-03-24T07:41:02.659Z,29.90
2019-03-24T07:43:31.826Z,31.37
2019-03-24T07:46:01.411Z,21.40
2019-03-24T07:48:30.598Z,26.27
2019-03-24T07:50:59.718Z,28.30
2019-03-24T07:53:28.750Z,27.33
2019-03-24T07:55:57.952Z,21.57
2019-03-24T07:58:27.029Z,23.33
2019-03-24T08:00:56.046Z,29.80
2019-03-24T08:03:25.113Z,29.20
2019-03-24T08:05:56.520Z,30.90
2019-03-24T08:08:27.158Z,26.90
2019-03-24T08:10:56.183Z,24.77
2019-03-24T08:13:25.302Z,19.20
2019-03-24T08:15:54.878Z,26.20
2019-03-24T08:18:29.953Z,14.97
2019-03-24T08:20:54.879Z,18.60
2019-03-24T08:23:23.936Z,23.80
2019-03-24T08:25:53.706Z,21.87
2019-03-24T08:28:23.234Z,20.70
2019-03-24T08:30:52.410Z,27.47
2019-03-24T08:33:22.051Z,29.00
2019-03-24T08:35:51.108Z,20.67
2019-03-24T08:38:22.604Z,29.33
2019-03-24T08:40:51.680Z,22.87
2019-03-24T08:43:22.315Z,24.03
2019-03-24T08:45:51.477Z,20.83
2019-03-24T08:48:20.708Z,19.07
2019-03-24T08:50:49.795Z,26.10
2019-03-24T08:53:18.857Z,22.73
2019-03-24T08:55:48.039Z,23.30
2019-03-24T08:58:17.423Z,26.67
2019-03-24T09:00:46.512Z,23.97
2019-03-24T09:03:15.867Z,21.47
2019-03-24T09:05:45.280Z,20.27
2019-03-24T09:08:14.478Z,17.43
2019-03-24T09:10:43.619Z,22.37
2019-03-24T09:13:12.875Z,21.43
2019-03-24T09:15:43.226Z,25.23
2019-03-24T09:18:12.756Z,22.60
2019-03-24T09:20:42.141Z,20.73
2019-03-24T09:23:11.372Z,25.43
2019-03-24T09:25:40.469Z,22.03
2019-03-24T09:28:09.733Z,23.83
2019-03-24T09:30:38.950Z,25.93
2019-03-24T09:33:08.011Z,19.10
2019-03-24T09:35:37.101Z,20.77
2019-03-24T09:38:06.435Z,22.27
2019-03-24T09:40:36.115Z,26.27
2019-03-24T09:43:05.586Z,26.23
2019-03-24T09:45:35.084Z,20.27
2019-03-24T09:48:05.034Z,23.00
2019-03-24T09:50:34.637Z,24.67
2019-03-24T09:53:04.218Z,23.33
2019-03-24T09:55:33.323Z,17.17
2019-03-24T09:58:02.552Z,19.87
2019-03-24T10:00:31.855Z,18.90
2019-03-24T10:03:01.249Z,12.67
2019-03-24T10:05:30.391Z,19.20
2019-03-24T10:07:59.504Z,16.50
2019-03-24T10:10:28.974Z,13.80
2019-03-24T10:12:58.354Z,22.07
2019-03-24T10:15:27.786Z,14.60
2019-03-24T10:17:59.418Z,19.03
2019-03-24T10:20:28.634Z,18.70
2019-03-24T10:22:57.880Z,17.40
2019-03-24T10:25:27.034Z,12.07
2019-03-24T10:27:56.337Z,16.80
2019-03-24T10:30:25.571Z,14.00
2019-03-24T10:32:54.729Z,11.17
2019-03-24T10:35:23.870Z,14.60
2019-03-24T10:37:53.742Z,13.37
2019-03-24T10:40:28.511Z,12.53
2019-03-24T10:42:53.935Z,13.47
2019-03-24T10:45:23.273Z,12.07
2019-03-24T10:47:52.514Z,12.13
2019-03-24T10:50:21.576Z,12.67
2019-03-24T10:52:50.623Z,8.77
2019-03-24T10:55:20.223Z,10.47
2019-03-24T10:57:49.319Z,8.13
2019-03-24T11:00:28.732Z,9.73
2019-03-24T11:02:58.067Z,8.00
2019-03-24T11:05:27.097Z,9.13
2019-03-24T11:07:56.186Z,9.30
2019-03-24T11:10:25.269Z,10.30
2019-03-24T11:12:54.465Z,11.00
2019-03-24T11:15:27.167Z,8.13
2019-03-24T11:17:56.414Z,10.03
2019-03-24T11:20:25.625Z,9.47
2019-03-24T11:22:55.083Z,11.17
2019-03-24T11:25:24.295Z,8.93
2019-03-24T11:27:54.111Z,12.43
2019-03-24T11:30:23.183Z,9.83
2019-03-24T11:32:52.283Z,10.90
2019-03-24T11:35:21.735Z,9.90
2019-03-24T11:37:51.343Z,13.13
2019-03-24T11:40:20.435Z,8.97
2019-03-24T11:42:49.894Z,11.20
2019-03-24T11:45:19.143Z,12.00
2019-03-24T11:47:48.417Z,8.10
2019-03-24T11:50:17.951Z,9.83
2019-03-24T11:52:47.039Z,9.13
2019-03-24T11:55:16.250Z,6.10
2019-03-24T11:57:45.569Z,11.03
2019-03-24T12:00:15.093Z,5.87
2019-03-24T12:02:44.795Z,10.47
2019-03-24T12:05:13.882Z,4.80
2019-03-24T12:07:43.188Z,5.33
2019-03-24T12:10:12.627Z,4.70
2019-03-24T12:12:42.327Z,6.80
2019-03-24T12:15:11.490Z,5.27
2019-03-24T12:17:41.445Z,3.10
2019-03-24T12:20:10.918Z,6.43
2019-03-24T12:22:40.159Z,6.73
2019-03-24T12:25:09.274Z,6.33
2019-03-24T12:27:38.423Z,5.90
2019-03-24T12:30:08.369Z,6.57
2019-03-24T12:32:37.807Z,7.70
2019-03-24T12:35:07.374Z,7.70
2019-03-24T12:37:36.694Z,8.03
2019-03-24T12:40:06.144Z,6.67
2019-03-24T12:42:35.627Z,6.90
2019-03-24T12:45:06.404Z,7.17
2019-03-24T12:47:35.732Z,11.17
2019-03-24T12:50:09.316Z,7.23
2019-03-24T12:52:36.507Z,9.20
2019-03-24T12:55:05.705Z,6.63
2019-03-24T12:57:35.211Z,8.70
2019-03-24T13:00:05.772Z,10.87
2019-03-24T13:02:34.912Z,13.03
2019-03-24T13:05:04.273Z,9.33
2019-03-24T13:07:33.363Z,6.90
2019-03-24T13:10:02.675Z,8.07
2019-03-24T13:12:32.006Z,13.97
2019-03-24T13:15:01.214Z,11.87
2019-03-24T13:17:31.135Z,8.73
2019-03-24T13:20:00.457Z,8.60
2019-03-24T13:22:30.258Z,10.77
2019-03-24T13:24:59.516Z,11.40
2019-03-24T13:27:28.799Z,10.47
2019-03-24T13:29:57.972Z,14.60
2019-03-24T13:32:27.607Z,9.37
2019-03-24T13:34:56.803Z,10.63
2019-03-24T13:37:25.957Z,13.77
2019-03-24T13:39:55.227Z,13.63
2019-03-24T13:42:24.526Z,12.63
2019-03-24T13:44:53.756Z,11.70
2019-03-24T13:47:22.900Z,7.33
2019-03-24T13:49:51.999Z,11.63
2019-03-24T13:52:21.134Z,12.83
2019-03-24T13:54:50.273Z,14.57
2019-03-24T13:57:19.339Z,10.73
2019-03-24T13:59:48.832Z,10.57
2019-03-24T14:02:17.870Z,12.03
2019-03-24T14:04:47.593Z,12.13
2019-03-24T14:07:17.558Z,15.93
2019-03-24T14:09:46.766Z,13.43
2019-03-24T14:12:17.921Z,12.23
2019-03-24T14:14:46.811Z,13.20
2019-03-24T14:17:16.060Z,12.90
2019-03-24T14:19:48.326Z,10.67
2019-03-24T14:22:23.655Z,10.77
2019-03-24T14:24:52.854Z,9.23
2019-03-24T14:27:22.015Z,7.93
2019-03-24T14:29:51.129Z,11.13
2019-03-24T14:32:20.414Z,10.27
2019-03-24T14:34:49.770Z,11.10
2019-03-24T14:37:18.846Z,9.90
2019-03-24T14:39:48.478Z,10.30
2019-03-24T14:42:17.586Z,11.13
2019-03-24T14:44:46.963Z,8.83
2019-03-24T14:47:16.173Z,10.20
2019-03-24T14:49:45.428Z,11.43
2019-03-24T14:52:14.627Z,12.93
2019-03-24T14:54:43.779Z,9.93
2019-03-24T14:57:12.859Z,10.33
2019-03-24T14:59:42.616Z,7.10
2019-03-24T15:02:11.973Z,13.03
2019-03-24T15:04:41.099Z,8.50
2019-03-24T15:07:10.466Z,10.33
2019-03-24T15:09:39.518Z,8.87
2019-03-24T15:12:08.744Z,9.50
2019-03-24T15:14:40.608Z,7.00
2019-03-24T15:17:09.875Z,6.57
2019-03-24T15:19:39.035Z,8.90
2019-03-24T15:22:08.204Z,5.47
2019-03-24T15:24:37.943Z,6.50
2019-03-24T15:27:07.245Z,8.10
2019-03-24T15:29:36.432Z,10.43
2019-03-24T15:32:05.831Z,7.07
2019-03-24T15:34:35.038Z,7.20
2019-03-24T15:37:04.159Z,9.70
2019-03-24T15:39:33.341Z,9.30
2019-03-24T15:42:02.448Z,12.20
2019-03-24T15:44:31.724Z,11.70
2019-03-24T15:47:00.938Z,8.00
2019-03-24T15:49:30.498Z,9.00
2019-03-24T15:51:59.654Z,8.53
2019-03-24T15:54:29.271Z,6.70
2019-03-24T15:56:58.494Z,8.30
2019-03-24T15:59:27.939Z,13.73
2019-03-24T16:01:57.016Z,5.93
2019-03-24T16:04:26.708Z,6.63
2019-03-24T16:06:55.891Z,7.67
2019-03-24T16:09:25.281Z,8.33
2019-03-24T16:11:55.132Z,9.60
2019-03-24T16:14:24.457Z,8.77
2019-03-24T16:16:53.683Z,6.60
2019-03-24T16:19:23.255Z,8.73
2019-03-24T16:21:52.361Z,9.50
2019-03-24T16:24:21.645Z,9.00
2019-03-24T16:26:50.958Z,15.40
2019-03-24T16:29:20.079Z,9.73
2019-03-24T16:31:49.465Z,7.47
2019-03-24T16:34:18.686Z,9.33
2019-03-24T16:36:48.188Z,7.60
2019-03-24T16:39:17.559Z,8.87
2019-03-24T16:41:46.833Z,17.00
2019-03-24T16:44:16.238Z,8.40
2019-03-24T16:46:45.791Z,9.53
2019-03-24T16:49:14.877Z,8.13
2019-03-24T16:51:43.988Z,7.13
2019-03-24T16:54:16.273Z,8.20
2019-03-24T16:56:45.746Z,8.63
2019-03-24T16:59:14.915Z,11.20
2019-03-24T17:01:44.691Z,11.83
2019-03-24T17:04:14.292Z,10.07
2019-03-24T17:06:43.406Z,8.73
2019-03-24T17:09:12.585Z,6.43
2019-03-24T17:11:41.861Z,10.90
2019-03-24T17:14:11.223Z,8.50
2019-03-24T17:16:40.351Z,7.47
2019-03-24T17:19:09.667Z,7.80
2019-03-24T17:21:49.433Z,7.83
2019-03-24T17:24:10.217Z,22.30
2019-03-24T17:26:39.523Z,9.37
2019-03-24T17:29:08.610Z,6.30
2019-03-24T17:31:37.742Z,9.87
2019-03-24T17:34:06.991Z,13.83
2019-03-24T17:36:36.110Z,7.57
2019-03-24T17:39:07.101Z,10.10
2019-03-24T17:41:36.838Z,12.50
2019-03-24T17:44:06.133Z,5.77
2019-03-24T17:46:35.573Z,9.10
2019-03-24T17:49:05.206Z,10.37
2019-03-24T17:51:34.335Z,9.50
2019-03-24T17:54:03.441Z,8.37
2019-03-24T17:56:32.794Z,8.90
2019-03-24T17:59:03.375Z,10.90
2019-03-24T18:01:32.561Z,7.43
2019-03-24T18:04:02.239Z,8.87
2019-03-24T18:06:31.639Z,8.07
2019-03-24T18:09:01.112Z,6.37
2019-03-24T18:11:30.868Z,9.03
2019-03-24T18:14:01.392Z,6.13
2019-03-24T18:16:30.530Z,9.43
2019-03-24T18:18:59.911Z,13.23
2019-03-24T18:21:29.056Z,9.50
2019-03-24T18:23:58.302Z,8.57
2019-03-24T18:26:27.546Z,8.83
2019-03-24T18:28:57.523Z,10.60
2019-03-24T18:31:26.616Z,10.80
2019-03-24T18:33:56.922Z,13.23
2019-03-24T18:36:26.544Z,9.53
2019-03-24T18:38:56.125Z,9.83
2019-03-24T18:41:25.309Z,6.13
2019-03-24T18:43:54.751Z,10.60
2019-03-24T18:46:23.950Z,7.67
2019-03-24T18:48:53.233Z,9.30
2019-03-24T18:51:22.330Z,12.30
2019-03-24T18:53:51.693Z,12.00
2019-03-24T18:56:20.870Z,8.93
2019-03-24T18:58:50.195Z,6.67
2019-03-24T19:01:19.501Z,9.17
2019-03-24T19:03:49.000Z,8.63
2019-03-24T19:06:18.381Z,12.13
2019-03-24T19:08:47.547Z,7.40
2019-03-24T19:11:16.730Z,7.50
2019-03-24T19:13:45.964Z,11.83
2019-03-24T19:16:15.642Z,9.40
2019-03-24T19:18:45.011Z,4.77
2019-03-24T19:21:14.409Z,9.77
2019-03-24T19:23:43.906Z,7.80
2019-03-24T19:26:13.194Z,9.17
2019-03-24T19:28:42.596Z,8.13
2019-03-24T19:31:11.808Z,8.27
2019-03-24T19:33:41.980Z,9.00
2019-03-24T19:36:11.289Z,10.20
2019-03-24T19:38:41.541Z,10.60
2019-03-24T19:41:10.868Z,14.37
2019-03-24T19:43:40.202Z,10.17
2019-03-24T19:46:09.753Z,9.17
2019-03-24T19:48:39.060Z,7.63
2019-03-24T19:51:08.344Z,9.87
2019-03-24T19:53:37.437Z,8.63
2019-03-24T19:56:06.595Z,10.95
2019-03-24T19:58:35.649Z,11.90
2019-03-24T20:01:11.030Z,11.73
2019-03-24T20:03:40.225Z,10.97
2019-03-24T20:06:28.206Z,8.60
2019-03-24T20:08:57.285Z,11.07
2019-03-24T20:11:26.509Z,12.33
2019-03-24T20:13:55.646Z,9.63
2019-03-24T20:16:24.799Z,11.00
2019-03-24T20:18:54.018Z,16.57
2019-03-24T20:21:23.194Z,10.30
2019-03-24T20:23:52.518Z,10.10
2019-03-24T20:26:21.850Z,12.17
2019-03-24T20:28:51.454Z,9.23
2019-03-24T20:31:20.627Z,14.00
2019-03-24T20:33:49.964Z,7.87
2019-03-24T20:36:19.215Z,13.63
2019-03-24T20:38:52.284Z,10.93
2019-03-24T20:41:24.957Z,13.27
2019-03-24T20:43:58.116Z,11.40
2019-03-24T20:46:28.617Z,14.07
2019-03-24T20:48:59.308Z,13.10
2019-03-24T20:51:30.057Z,13.10
2019-03-24T20:54:00.508Z,13.30
2019-03-24T20:56:30.052Z,12.10
2019-03-24T20:58:59.965Z,9.20
2019-03-24T21:01:29.521Z,13.53
2019-03-24T21:03:58.720Z,12.03
2019-03-24T21:06:27.770Z,12.57
2019-03-24T21:08:57.057Z,9.87
2019-03-24T21:11:26.577Z,12.80
2019-03-24T21:13:58.472Z,10.70
2019-03-24T21:16:28.264Z,8.97
2019-03-24T21:18:58.033Z,9.93
2019-03-24T21:21:28.342Z,10.17
2019-03-24T21:23:57.633Z,14.83
2019-03-24T21:26:27.900Z,13.27
2019-03-24T21:28:58.403Z,8.50
2019-03-24T21:31:28.901Z,11.20
2019-03-24T21:33:59.469Z,13.40
2019-03-24T21:36:29.711Z,10.07
2019-03-24T21:38:59.820Z,16.33
2019-03-24T21:41:29.357Z,11.67
2019-03-24T21:43:59.231Z,12.87
2019-03-24T21:46:29.380Z,12.40
2019-03-24T21:48:59.208Z,13.97
2019-03-24T21:51:28.938Z,12.10
2019-03-24T21:53:59.649Z,12.73
2019-03-24T21:56:29.877Z,9.87
2019-03-24T21:58:59.649Z,11.07
2019-03-24T22:01:29.782Z,11.97
2019-03-24T22:03:59.608Z,12.67
2019-03-24T22:06:29.014Z,15.17
2019-03-24T22:08:58.931Z,15.47
2019-03-24T22:11:28.815Z,12.13
2019-03-24T22:13:58.458Z,9.93
2019-03-24T22:16:28.403Z,14.60
2019-03-24T22:18:58.626Z,14.73
2019-03-24T22:21:28.749Z,13.03
2019-03-24T22:23:58.969Z,15.07
2019-03-24T22:26:29.011Z,14.53
2019-03-24T22:28:59.168Z,13.03
2019-03-24T22:31:29.500Z,12.33
2019-03-24T22:33:58.732Z,12.73
2019-03-24T22:36:28.513Z,12.50
2019-03-24T22:38:58.302Z,11.93
2019-03-24T22:41:28.179Z,13.67
2019-03-24T22:43:58.726Z,14.30
2019-03-24T22:46:28.425Z,10.97
2019-03-24T22:48:57.600Z,17.10
2019-03-24T22:51:27.430Z,11.30
2019-03-24T22:54:03.137Z,11.17
2019-03-24T22:56:28.043Z,10.87
2019-03-24T22:58:58.003Z,13.13
2019-03-24T23:01:27.688Z,7.80
2019-03-24T23:03:58.187Z,10.90
2019-03-24T23:06:28.218Z,10.87
2019-03-24T23:08:57.739Z,12.03
2019-03-24T23:11:26.918Z,13.07
2019-03-24T23:13:56.162Z,10.40
2019-03-24T23:16:25.211Z,16.13
2019-03-24T23:18:54.461Z,10.00
2019-03-24T23:21:23.726Z,8.13
2019-03-24T23:23:59.666Z,12.77
2019-03-24T23:26:29.251Z,10.20
2019-03-24T23:28:58.370Z,7.77
2019-03-24T23:31:27.403Z,13.53
2019-03-24T23:33:56.493Z,15.80
2019-03-24T23:36:25.753Z,12.83
2019-03-24T23:38:57.204Z,9.63
2019-03-24T23:41:25.678Z,14.33
2019-03-24T23:43:55.434Z,10.20
2019-03-24T23:46:24.499Z,11.13
2019-03-24T23:48:54.838Z,10.23
2019-03-24T23:51:23.926Z,13.43
2019-03-24T23:54:11.750Z,8.10
2019-03-24T23:56:41.352Z,10.73
2019-03-24T23:59:10.515Z,21.00
